createdAt,value
2018-01-15T00:00:54.513Z,99.99
2018-01-15T00:02:04.208Z,99.99
2018-01-15T00:03:13.899Z,99.99
2018-01-15T00:04:23.844Z,99.99
2018-01-15T00:05:33.778Z,99.99
2018-01-15T00:06:43.478Z,99.99
2018-01-15T00:07:53.165Z,99.99
2018-01-15T00:09:03.112Z,99.99
2018-01-15T00:10:13.049Z,99.99
2018-01-15T00:11:22.728Z,99.99
2018-01-15T00:12:32.663Z,99.99
2018-01-15T00:13:42.332Z,99.99
2018-01-15T00:14:52.026Z,99.99
2018-01-15T00:16:01.969Z,99.99
2018-01-15T00:17:11.650Z,99.99
2018-01-15T00:18:20.818Z,99.99
2018-01-15T00:19:30.502Z,99.99
2018-01-15T00:20:40.200Z,99.99
2018-01-15T00:21:49.894Z,99.99
2018-01-15T00:22:59.571Z,99.99
2018-01-15T00:24:08.999Z,99.99
2018-01-15T00:25:18.949Z,99.99
2018-01-15T00:26:28.913Z,99.99
2018-01-15T00:27:38.851Z,99.99
2018-01-15T00:28:48.850Z,99.99
2018-01-15T00:29:58.533Z,99.99
2018-01-15T00:31:08.474Z,99.99
2018-01-15T00:32:18.409Z,99.99
2018-01-15T00:33:28.356Z,99.99
2018-01-15T00:34:38.301Z,99.99
2018-01-15T00:35:48.239Z,99.99
2018-01-15T00:36:58.178Z,99.99
2018-01-15T00:38:08.122Z,99.99
2018-01-15T00:39:18.054Z,99.99
2018-01-15T00:40:27.727Z,99.99
2018-01-15T00:41:37.660Z,99.99
2018-01-15T00:42:47.589Z,99.99
2018-01-15T00:43:57.518Z,99.99
2018-01-15T00:45:07.191Z,99.99
2018-01-15T00:46:17.133Z,99.99
2018-01-15T00:47:26.819Z,99.99
2018-01-15T00:48:36.752Z,99.99
2018-01-15T00:49:46.686Z,99.99
2018-01-15T00:50:56.625Z,99.99
2018-01-15T00:52:06.607Z,99.99
2018-01-15T00:53:16.549Z,99.99
2018-01-15T00:54:26.487Z,99.99
2018-01-15T00:55:36.178Z,99.99
2018-01-15T00:56:46.131Z,99.99
2018-01-15T00:57:55.810Z,99.99
2018-01-15T00:59:05.992Z,99.99
2018-01-15T01:00:15.962Z,99.99
2018-01-15T01:01:25.395Z,99.99
2018-01-15T01:02:35.341Z,99.99
2018-01-15T01:03:45.292Z,99.99
2018-01-15T01:04:54.724Z,99.99
2018-01-15T01:06:04.658Z,99.99
2018-01-15T01:07:14.344Z,99.99
2018-01-15T01:08:24.279Z,99.99
2018-01-15T01:09:33.953Z,99.99
2018-01-15T01:10:43.905Z,99.99
2018-01-15T01:11:53.847Z,99.99
2018-01-15T01:13:03.526Z,99.99
2018-01-15T01:14:13.213Z,99.99
2018-01-15T01:15:23.154Z,99.99
2018-01-15T01:16:33.093Z,99.99
2018-01-15T01:17:43.034Z,99.99
2018-01-15T01:18:52.970Z,99.99
2018-01-15T01:20:02.651Z,99.99
2018-01-15T01:21:13.132Z,99.99
2018-01-15T01:22:23.068Z,99.99
2018-01-15T01:23:32.991Z,99.99
2018-01-15T01:24:42.935Z,99.99
2018-01-15T01:25:52.616Z,99.99
2018-01-15T01:27:02.562Z,99.99
2018-01-15T01:28:12.516Z,99.99
2018-01-15T01:29:22.457Z,99.99
2018-01-15T01:30:32.145Z,99.99
2018-01-15T01:31:42.083Z,99.99
2018-01-15T01:32:52.030Z,99.99
2018-01-15T01:34:01.964Z,99.99
2018-01-15T01:35:11.650Z,99.99
2018-01-15T01:36:21.324Z,99.99
2018-01-15T01:37:31.266Z,99.99
2018-01-15T01:38:41.207Z,99.99
2018-01-15T01:39:50.628Z,99.99
2018-01-15T01:41:00.561Z,99.99
2018-01-15T01:42:10.248Z,99.99
2018-01-15T01:43:20.196Z,99.99
2018-01-15T01:44:29.875Z,99.99
2018-01-15T01:45:39.547Z,99.99
2018-01-15T01:46:49.474Z,99.99
2018-01-15T01:47:59.412Z,99.99
2018-01-15T01:49:09.350Z,99.99
2018-01-15T01:50:19.292Z,99.99
2018-01-15T01:51:29.228Z,99.99
2018-01-15T01:52:39.155Z,99.99
2018-01-15T01:53:49.086Z,99.99
2018-01-15T01:54:58.764Z,99.99
2018-01-15T01:56:08.447Z,99.99
2018-01-15T01:57:18.376Z,99.99
2018-01-15T01:58:28.067Z,99.99
2018-01-15T01:59:38.022Z,99.99
2018-01-15T02:00:47.707Z,99.99
2018-01-15T02:01:57.386Z,99.99
2018-01-15T02:03:06.830Z,99.99
2018-01-15T02:04:16.792Z,99.99
2018-01-15T02:05:26.728Z,99.99
2018-01-15T02:06:36.661Z,99.99
2018-01-15T02:07:46.597Z,99.99
2018-01-15T02:08:56.527Z,99.99
2018-01-15T02:10:06.196Z,99.99
2018-01-15T02:11:16.137Z,99.99
2018-01-15T02:12:26.072Z,99.99
2018-01-15T02:13:35.759Z,99.99
2018-01-15T02:14:45.708Z,99.99
2018-01-15T02:15:55.383Z,99.99
2018-01-15T02:17:05.329Z,99.99
2018-01-15T02:18:15.275Z,99.99
2018-01-15T02:19:24.955Z,99.99
2018-01-15T02:20:34.893Z,99.99
2018-01-15T02:21:44.834Z,99.99
2018-01-15T02:22:54.761Z,99.99
2018-01-15T02:24:04.197Z,99.99
2018-01-15T02:25:13.876Z,99.99
2018-01-15T02:26:23.807Z,99.99
2018-01-15T02:27:33.240Z,99.99
2018-01-15T02:28:42.918Z,99.99
2018-01-15T02:29:52.598Z,99.99
2018-01-15T02:31:02.286Z,99.99
2018-01-15T02:32:12.219Z,99.99
2018-01-15T02:33:21.911Z,99.99
2018-01-15T02:34:31.595Z,99.99
2018-01-15T02:35:41.525Z,99.99
2018-01-15T02:36:51.485Z,99.99
2018-01-15T02:38:01.428Z,99.99
2018-01-15T02:39:11.366Z,99.99
2018-01-15T02:40:21.061Z,99.99
2018-01-15T02:41:30.750Z,99.99
2018-01-15T02:42:40.194Z,99.99
2018-01-15T02:43:50.142Z,99.99
2018-01-15T02:45:00.096Z,99.99
2018-01-15T02:46:10.035Z,99.99
2018-01-15T02:47:19.979Z,99.99
2018-01-15T02:48:29.686Z,99.99
2018-01-15T02:49:39.626Z,99.99
2018-01-15T02:50:49.573Z,99.99
2018-01-15T02:51:59.508Z,99.99
2018-01-15T02:53:09.448Z,99.99
2018-01-15T02:54:19.134Z,99.99
2018-01-15T02:55:29.065Z,99.99
2018-01-15T02:56:38.999Z,99.99
2018-01-15T02:57:48.941Z,99.99
2018-01-15T02:58:58.890Z,99.99
2018-01-15T03:00:08.561Z,99.99
2018-01-15T03:01:18.247Z,99.99
2018-01-15T03:02:28.183Z,99.99
2018-01-15T03:03:38.125Z,99.99
2018-01-15T03:04:47.814Z,99.99
2018-01-15T03:05:57.749Z,99.99
2018-01-15T03:07:07.432Z,99.99
2018-01-15T03:08:17.123Z,99.99
2018-01-15T03:09:27.052Z,99.99
2018-01-15T03:10:36.981Z,99.99
2018-01-15T03:11:46.915Z,99.99
2018-01-15T03:12:56.589Z,99.99
2018-01-15T03:14:06.276Z,99.99
2018-01-15T03:15:16.220Z,99.99
2018-01-15T03:16:26.172Z,99.99
2018-01-15T03:17:35.850Z,99.99
2018-01-15T03:18:45.779Z,99.99
2018-01-15T03:19:55.465Z,99.99
2018-01-15T03:21:05.150Z,99.99
2018-01-15T03:22:14.837Z,99.99
2018-01-15T03:23:24.775Z,99.99
2018-01-15T03:24:34.973Z,99.99
2018-01-15T03:25:44.646Z,99.99
2018-01-15T03:26:54.588Z,99.99
2018-01-15T03:28:04.534Z,99.99
2018-01-15T03:29:14.479Z,99.99
2018-01-15T03:30:23.917Z,99.99
2018-01-15T03:31:33.864Z,99.99
2018-01-15T03:32:43.820Z,99.99
2018-01-15T03:33:53.766Z,99.99
2018-01-15T03:35:03.699Z,99.99
2018-01-15T03:36:13.381Z,99.99
2018-01-15T03:37:23.128Z,99.99
2018-01-15T03:38:32.560Z,99.99
2018-01-15T03:39:42.542Z,99.99
2018-01-15T03:40:52.480Z,99.99
2018-01-15T03:42:02.163Z,99.99
2018-01-15T03:43:11.337Z,99.99
2018-01-15T03:44:21.027Z,99.99
2018-01-15T03:45:30.961Z,99.99
2018-01-15T03:46:40.654Z,99.99
2018-01-15T03:47:50.342Z,99.99
2018-01-15T03:49:00.340Z,99.99
2018-01-15T03:50:10.288Z,99.99
2018-01-15T03:51:20.225Z,99.99
2018-01-15T03:52:29.911Z,99.99
2018-01-15T03:53:39.854Z,99.99
2018-01-15T03:54:49.783Z,99.99
2018-01-15T03:55:59.723Z,99.99
2018-01-15T03:57:09.148Z,99.99
2018-01-15T03:58:19.081Z,99.99
2018-01-15T03:59:28.764Z,99.99
2018-01-15T04:00:38.692Z,99.99
2018-01-15T04:01:48.625Z,99.99
2018-01-15T04:02:58.567Z,99.99
2018-01-15T04:04:08.247Z,99.99
2018-01-15T04:05:18.177Z,99.99
2018-01-15T04:06:28.118Z,99.99
2018-01-15T04:07:37.802Z,99.99
2018-01-15T04:08:47.485Z,99.99
2018-01-15T04:09:56.913Z,99.99
2018-01-15T04:11:06.857Z,99.99
2018-01-15T04:12:16.803Z,99.99
2018-01-15T04:13:26.730Z,99.99
2018-01-15T04:14:36.668Z,99.99
2018-01-15T04:15:46.357Z,99.99
2018-01-15T04:16:56.295Z,99.99
2018-01-15T04:18:06.231Z,99.99
2018-01-15T04:19:16.175Z,99.99
2018-01-15T04:20:26.112Z,99.99
2018-01-15T04:21:36.043Z,99.99
2018-01-15T04:22:45.970Z,99.99
2018-01-15T04:23:55.907Z,99.99
2018-01-15T04:25:05.854Z,99.99
2018-01-15T04:26:15.275Z,99.99
2018-01-15T04:27:25.208Z,99.99
2018-01-15T04:28:34.890Z,99.99
2018-01-15T04:29:44.595Z,99.99
2018-01-15T04:30:54.524Z,99.99
2018-01-15T04:32:04.205Z,99.99
2018-01-15T04:33:14.163Z,99.99
2018-01-15T04:34:23.847Z,99.99
2018-01-15T04:35:33.526Z,99.99
2018-01-15T04:36:43.464Z,99.99
2018-01-15T04:37:53.138Z,99.99
2018-01-15T04:39:03.068Z,99.99
2018-01-15T04:40:13.001Z,99.99
2018-01-15T04:41:22.687Z,99.99
2018-01-15T04:42:32.646Z,99.99
2018-01-15T04:43:42.576Z,99.99
2018-01-15T04:44:52.256Z,99.99
2018-01-15T04:46:01.932Z,99.99
2018-01-15T04:47:11.863Z,99.99
2018-01-15T04:48:21.545Z,99.99
2018-01-15T04:49:31.479Z,99.99
2018-01-15T04:50:41.405Z,99.99
2018-01-15T04:51:50.829Z,99.99
2018-01-15T04:53:00.769Z,99.99
2018-01-15T04:54:10.453Z,99.99
2018-01-15T04:55:20.387Z,99.99
2018-01-15T04:56:30.076Z,99.99
2018-01-15T04:57:39.747Z,99.99
2018-01-15T04:58:49.686Z,99.99
2018-01-15T04:59:59.628Z,99.99
2018-01-15T05:01:09.371Z,99.99
2018-01-15T05:02:19.349Z,99.99
2018-01-15T05:03:29.289Z,99.99
2018-01-15T05:04:39.235Z,99.99
2018-01-15T05:05:48.920Z,99.99
2018-01-15T05:06:58.589Z,99.99
2018-01-15T05:08:08.013Z,99.99
2018-01-15T05:09:17.957Z,99.99
2018-01-15T05:10:27.900Z,99.99
2018-01-15T05:11:38.074Z,99.99
2018-01-15T05:12:48.011Z,99.99
2018-01-15T05:13:57.691Z,99.99
2018-01-15T05:15:07.653Z,99.99
2018-01-15T05:16:17.591Z,99.99
2018-01-15T05:17:27.540Z,99.99
2018-01-15T05:18:37.477Z,99.99
2018-01-15T05:27:39.310Z,99.99
2018-01-15T05:28:49.245Z,99.99
2018-01-15T05:29:59.196Z,99.99
2018-01-15T05:31:09.161Z,99.99
2018-01-15T05:32:19.125Z,99.99
2018-01-15T05:33:29.169Z,99.99
2018-01-15T05:34:39.119Z,99.99
2018-01-15T05:35:48.286Z,99.99
2018-01-15T05:36:58.232Z,99.99
2018-01-15T05:38:08.167Z,99.99
2018-01-15T05:39:17.853Z,99.99
2018-01-15T05:40:27.795Z,99.99
2018-01-15T05:41:37.739Z,99.99
2018-01-15T05:42:47.426Z,99.99
2018-01-15T05:43:57.402Z,99.99
2018-01-15T05:45:07.379Z,99.99
2018-01-15T05:46:17.053Z,99.99
2018-01-15T05:47:26.997Z,99.99
2018-01-15T05:48:36.927Z,99.99
2018-01-15T05:49:46.882Z,99.99
2018-01-15T05:50:56.819Z,99.99
2018-01-15T05:52:06.775Z,99.99
2018-01-15T05:53:16.727Z,99.99
2018-01-15T05:54:26.676Z,99.99
2018-01-15T05:55:36.613Z,99.99
2018-01-15T05:56:46.296Z,99.99
2018-01-15T05:57:55.788Z,99.99
2018-01-15T05:59:05.718Z,99.99
2018-01-15T06:00:15.661Z,99.99
2018-01-15T06:01:25.594Z,99.99
2018-01-15T06:02:35.266Z,99.99
2018-01-15T06:03:45.204Z,99.99
2018-01-15T06:04:55.166Z,99.99
2018-01-15T06:06:05.106Z,99.99
2018-01-15T06:07:15.120Z,99.99
2018-01-15T06:08:24.802Z,99.99
2018-01-15T06:09:34.484Z,99.99
2018-01-15T06:10:44.417Z,99.99
2018-01-15T06:11:54.352Z,99.99
2018-01-15T06:13:04.040Z,99.99
2018-01-15T06:14:13.738Z,99.99
2018-01-15T06:15:23.424Z,99.99
2018-01-15T06:16:33.380Z,99.99
2018-01-15T06:17:43.068Z,99.99
2018-01-15T06:18:53.029Z,99.99
2018-01-15T06:20:02.709Z,99.99
2018-01-15T06:21:12.404Z,99.99
2018-01-15T06:22:22.410Z,99.99
2018-01-15T06:23:32.142Z,99.99
2018-01-15T06:24:42.079Z,99.99
2018-01-15T06:25:52.012Z,99.99
2018-01-15T06:27:01.949Z,99.99
2018-01-15T06:28:11.380Z,99.99
2018-01-15T06:29:21.316Z,99.99
2018-01-15T06:30:31.006Z,99.99
2018-01-15T06:31:40.956Z,99.99
2018-01-15T06:32:50.904Z,99.99
2018-01-15T06:34:00.841Z,99.99
2018-01-15T06:35:10.790Z,99.99
2018-01-15T06:36:20.767Z,99.99
2018-01-15T06:37:30.701Z,99.99
2018-01-15T06:38:40.639Z,99.99
2018-01-15T06:39:50.578Z,99.99
2018-01-15T06:41:00.271Z,99.99
2018-01-15T06:42:10.221Z,99.99
2018-01-15T06:43:20.151Z,99.99
2018-01-15T06:44:30.090Z,99.99
2018-01-15T06:45:39.777Z,99.99
2018-01-15T06:46:49.742Z,99.99
2018-01-15T06:47:59.710Z,99.99
2018-01-15T06:49:09.674Z,99.99
2018-01-15T06:50:19.372Z,99.99
2018-01-15T06:51:29.055Z,99.99
2018-01-15T06:52:39.015Z,99.99
2018-01-15T06:53:48.973Z,99.99
2018-01-15T06:54:58.691Z,99.99
2018-01-15T06:56:08.627Z,99.99
2018-01-15T06:57:18.573Z,99.99
2018-01-15T06:58:28.518Z,99.99
2018-01-15T06:59:38.194Z,99.99
2018-01-15T07:00:48.156Z,99.99
2018-01-15T07:01:58.090Z,99.99
2018-01-15T07:03:07.798Z,99.99
2018-01-15T07:04:17.490Z,99.99
2018-01-15T07:05:27.488Z,99.99
2018-01-15T07:06:37.430Z,99.99
2018-01-15T07:07:47.392Z,99.99
2018-01-15T07:08:57.327Z,99.99
2018-01-15T07:10:07.275Z,99.99
2018-01-15T07:11:17.233Z,99.99
2018-01-15T07:12:27.438Z,99.99
2018-01-15T07:13:37.381Z,99.99
2018-01-15T07:14:47.318Z,99.99
2018-01-15T07:15:57.004Z,99.99
2018-01-15T07:17:06.940Z,99.99
2018-01-15T07:18:16.976Z,99.99
2018-01-15T07:19:26.946Z,99.99
2018-01-15T07:20:36.638Z,99.99
2018-01-15T07:21:46.609Z,99.99
2018-01-15T07:22:56.288Z,99.99
2018-01-15T07:24:05.720Z,99.99
2018-01-15T07:25:15.665Z,99.99
2018-01-15T07:26:25.609Z,99.99
2018-01-15T07:27:35.292Z,99.99
2018-01-15T07:28:45.273Z,99.99
2018-01-15T07:29:55.231Z,99.99
2018-01-15T07:31:05.159Z,99.99
2018-01-15T07:32:15.125Z,99.99
2018-01-15T07:33:25.075Z,99.99
2018-01-15T07:34:34.537Z,99.99
2018-01-15T07:35:44.497Z,99.99
2018-01-15T07:36:54.430Z,99.99
2018-01-15T07:38:04.658Z,99.99
2018-01-15T07:39:14.623Z,99.99
2018-01-15T07:40:24.561Z,99.99
2018-01-15T07:41:34.244Z,99.99
2018-01-15T07:42:43.929Z,99.99
2018-01-15T07:43:53.871Z,99.99
2018-01-15T07:45:03.563Z,99.99
2018-01-15T07:46:13.872Z,99.99
2018-01-15T07:47:23.811Z,99.99
2018-01-15T07:48:33.773Z,99.99
2018-01-15T07:49:43.727Z,99.99
2018-01-15T07:50:53.657Z,99.99
2018-01-15T07:52:03.617Z,99.99
2018-01-15T07:53:13.308Z,99.99
2018-01-15T07:54:23.259Z,99.99
2018-01-15T07:55:32.960Z,99.99
2018-01-15T07:56:42.663Z,99.99
2018-01-15T07:57:52.392Z,99.99
2018-01-15T07:59:01.915Z,99.99
2018-01-15T08:00:11.652Z,99.99
2018-01-15T08:01:21.616Z,99.99
2018-01-15T08:02:31.777Z,99.99
2018-01-15T08:03:41.769Z,99.99
2018-01-15T08:04:51.745Z,99.99
2018-01-15T08:06:01.707Z,99.99
2018-01-15T08:07:11.683Z,99.99
2018-01-15T08:08:21.644Z,99.99
2018-01-15T08:09:31.619Z,99.99
2018-01-15T08:10:41.547Z,99.99
2018-01-15T08:11:51.488Z,99.99
2018-01-15T08:13:01.438Z,99.99
2018-01-15T08:14:11.385Z,99.99
2018-01-15T08:15:21.074Z,99.99
2018-01-15T08:16:31.039Z,99.99
2018-01-15T08:17:40.974Z,99.99
2018-01-15T08:18:51.166Z,99.99
2018-01-15T08:20:01.177Z,99.99
2018-01-15T08:21:11.134Z,99.99
2018-01-15T08:22:20.847Z,99.99
2018-01-15T08:23:30.810Z,99.99
2018-01-15T08:24:40.794Z,99.99
2018-01-15T08:25:50.748Z,99.99
2018-01-15T08:27:00.449Z,99.99
2018-01-15T08:28:10.137Z,99.99
2018-01-15T08:29:20.118Z,99.99
2018-01-15T08:30:29.813Z,99.99
2018-01-15T08:31:39.668Z,99.99
2018-01-15T08:32:49.096Z,99.99
2018-01-15T08:33:59.150Z,99.99
2018-01-15T08:35:09.124Z,99.99
2018-01-15T08:36:19.108Z,99.99
2018-01-15T08:37:29.057Z,99.99
2018-01-15T08:38:39.000Z,99.99
2018-01-15T08:39:48.713Z,99.99
2018-01-15T08:40:58.146Z,99.99
2018-01-15T08:42:08.102Z,99.99
2018-01-15T08:43:17.795Z,99.99
2018-01-15T08:44:27.759Z,99.99
2018-01-15T08:45:37.715Z,99.99
2018-01-15T08:46:47.675Z,99.99
2018-01-15T08:47:57.358Z,99.99
2018-01-15T08:49:07.546Z,99.99
2018-01-15T08:50:17.235Z,99.99
2018-01-15T08:51:27.186Z,99.99
2018-01-15T08:52:36.913Z,99.99
2018-01-15T08:53:46.870Z,99.99
2018-01-15T08:54:56.865Z,99.99
2018-01-15T08:56:07.004Z,99.99
2018-01-15T08:57:16.964Z,99.99
2018-01-15T08:58:26.674Z,99.99
2018-01-15T08:59:36.636Z,99.99
2018-01-15T09:00:46.660Z,99.99
2018-01-15T09:01:56.648Z,99.99
2018-01-15T09:03:06.370Z,99.99
2018-01-15T09:04:16.080Z,99.99
2018-01-15T09:05:25.767Z,99.99
2018-01-15T09:06:35.723Z,99.99
2018-01-15T09:07:45.183Z,99.99
2018-01-15T09:08:54.878Z,99.99
2018-01-15T09:10:04.850Z,99.99
2018-01-15T09:11:14.824Z,99.99
2018-01-15T09:12:24.514Z,99.99
2018-01-15T09:13:34.245Z,99.99
2018-01-15T09:14:43.949Z,99.99
2018-01-15T09:15:53.662Z,99.99
2018-01-15T09:17:03.610Z,99.99
2018-01-15T09:18:13.314Z,99.99
2018-01-15T09:19:23.472Z,99.99
2018-01-15T09:20:33.417Z,99.99
2018-01-15T09:21:43.377Z,99.99
2018-01-15T09:22:53.354Z,99.99
2018-01-15T09:24:03.300Z,99.99
2018-01-15T09:25:13.001Z,99.99
2018-01-15T09:26:22.684Z,99.99
2018-01-15T09:27:32.627Z,99.99
2018-01-15T09:28:42.584Z,99.99
2018-01-15T09:29:52.533Z,99.99
2018-01-15T09:31:02.513Z,99.99
2018-01-15T09:32:12.462Z,99.99
2018-01-15T09:33:22.204Z,99.99
2018-01-15T09:34:32.228Z,99.99
2018-01-15T09:35:42.172Z,99.99
2018-01-15T09:36:52.123Z,99.99
2018-01-15T09:38:02.119Z,99.99
2018-01-15T09:39:11.822Z,99.99
2018-01-15T09:40:21.784Z,99.99
2018-01-15T09:41:31.241Z,99.99
2018-01-15T09:42:41.195Z,99.99
2018-01-15T09:43:51.160Z,99.99
2018-01-15T09:45:01.123Z,99.99
2018-01-15T09:46:10.825Z,99.99
2018-01-15T09:47:20.793Z,99.99
2018-01-15T09:48:30.755Z,99.99
2018-01-15T09:49:40.733Z,99.99
2018-01-15T09:50:50.689Z,99.99
2018-01-15T09:52:00.381Z,99.99
2018-01-15T09:53:10.326Z,99.99
2018-01-15T09:54:20.051Z,99.99
2018-01-15T09:55:30.130Z,99.99
2018-01-15T09:56:40.172Z,99.99
2018-01-15T09:57:49.867Z,99.99
2018-01-15T09:58:59.553Z,99.43
2018-01-15T10:00:08.986Z,99.43
2018-01-15T10:01:18.700Z,99.15
2018-01-15T10:02:28.658Z,98.58
2018-01-15T10:03:38.369Z,98.67
2018-01-15T10:04:48.070Z,98.2
2018-01-15T10:05:58.059Z,98.01
2018-01-15T10:07:07.582Z,97.53
2018-01-15T10:08:17.530Z,96.92
2018-01-15T10:09:27.485Z,96.73
2018-01-15T10:10:36.922Z,96.92
2018-01-15T10:11:46.902Z,96.97
2018-01-15T10:12:56.856Z,97.72
2018-01-15T10:14:06.552Z,97.63
2018-01-15T10:15:16.755Z,97.58
2018-01-15T10:16:26.487Z,97.06
2018-01-15T10:17:36.189Z,96.78
2018-01-15T10:18:46.148Z,97.44
2018-01-15T10:19:56.100Z,96.64
2018-01-15T10:21:06.047Z,96.83
2018-01-15T10:22:16.012Z,97.02
2018-01-15T10:23:25.456Z,96.64
2018-01-15T10:24:35.666Z,96.64
2018-01-15T10:25:45.103Z,96.54
2018-01-15T10:26:55.064Z,96.92
2018-01-15T10:28:04.795Z,96.54
2018-01-15T10:29:14.767Z,96.16
2018-01-15T10:30:24.466Z,95.69
2018-01-15T10:31:34.430Z,95.59
2018-01-15T10:32:44.454Z,96.07
2018-01-15T10:33:54.433Z,95.03
2018-01-15T10:35:04.423Z,95.69
2018-01-15T10:36:14.381Z,95.69
2018-01-15T10:37:24.348Z,95.5
2018-01-15T10:38:34.291Z,94.84
2018-01-15T10:39:44.287Z,94.27
2018-01-15T10:40:54.250Z,94.51
2018-01-15T10:42:03.995Z,94.04
2018-01-15T10:43:13.955Z,94.56
2018-01-15T10:44:23.933Z,94.42
2018-01-15T10:45:33.924Z,95.12
2018-01-15T10:46:43.635Z,94.93
2018-01-15T10:47:53.580Z,94.65
2018-01-15T10:49:03.594Z,94.13
2018-01-15T10:50:13.596Z,94.51
2018-01-15T10:51:23.563Z,93.94
2018-01-15T10:52:33.288Z,93.65
2018-01-15T10:53:43.244Z,92.05
2018-01-15T10:54:53.231Z,92.61
2018-01-15T10:56:02.685Z,93.18
2018-01-15T10:57:12.682Z,93.46
2018-01-15T10:58:22.654Z,93.37
2018-01-15T10:59:32.607Z,93.37
2018-01-15T11:00:42.323Z,93.56
2018-01-15T11:01:52.318Z,93.37
2018-01-15T11:03:02.278Z,93.56
2018-01-15T11:04:12.275Z,92.33
2018-01-15T11:05:22.020Z,92.9
2018-01-15T11:06:31.975Z,91.86
2018-01-15T11:07:41.697Z,91.9
2018-01-15T11:08:51.638Z,91.52
2018-01-15T11:10:01.338Z,92.09
2018-01-15T11:11:11.080Z,91.24
2018-01-15T11:12:21.045Z,91.24
2018-01-15T11:13:30.759Z,91.05
2018-01-15T11:14:40.213Z,91.33
2018-01-15T11:15:50.181Z,91.14
2018-01-15T11:17:00.220Z,90.95
2018-01-15T11:18:10.431Z,90.95
2018-01-15T11:19:20.417Z,90.58
2018-01-15T11:20:30.398Z,91.24
2018-01-15T11:21:40.408Z,91.43
2018-01-15T11:22:50.180Z,90.58
2018-01-15T11:24:00.222Z,90.67
2018-01-15T11:25:10.202Z,90.58
2018-01-15T11:26:20.159Z,89.91
2018-01-15T11:27:30.124Z,90.2
2018-01-15T11:28:39.564Z,90.2
2018-01-15T11:29:49.513Z,90.2
2018-01-15T11:30:59.490Z,89.53
2018-01-15T11:32:09.209Z,89.53
2018-01-15T11:33:19.151Z,89.25
2018-01-15T11:34:29.117Z,89.72
2018-01-15T11:35:38.879Z,89.53
2018-01-15T11:36:48.860Z,88.96
2018-01-15T11:37:58.821Z,87.92
2018-01-15T11:39:08.860Z,87.77
2018-01-15T11:40:18.810Z,88.06
2018-01-15T11:41:28.521Z,87.49
2018-01-15T11:42:38.274Z,87.97
2018-01-15T11:43:48.270Z,88.16
2018-01-15T11:44:58.250Z,88.87
2018-01-15T11:46:08.202Z,88.87
2018-01-15T11:47:18.202Z,88.21
2018-01-15T11:48:28.096Z,88.96
2018-01-15T11:49:38.450Z,88.11
2018-01-15T11:50:48.161Z,88.49
2018-01-15T11:51:58.114Z,88.11
2018-01-15T11:53:07.812Z,88.02
2018-01-15T11:54:17.773Z,88.02
2018-01-15T11:55:27.737Z,88.02
2018-01-15T11:56:37.524Z,88.02
2018-01-15T11:57:46.955Z,87.73
2018-01-15T11:58:56.912Z,87.92
2018-01-15T12:00:06.864Z,88.3
2018-01-15T12:01:16.817Z,88.11
2018-01-15T12:02:26.778Z,87.64
2018-01-15T12:03:36.482Z,86.74
2018-01-15T12:04:46.423Z,86.83
2018-01-15T12:05:56.116Z,87.12
2018-01-15T12:07:06.075Z,87.02
2018-01-15T12:08:15.782Z,87.21
2018-01-15T12:09:25.477Z,87.02
2018-01-15T12:10:35.434Z,87.59
2018-01-15T12:11:45.409Z,87.02
2018-01-15T12:12:55.108Z,87.87
2018-01-15T12:14:05.058Z,86.74
2018-01-15T12:15:15.062Z,86.74
2018-01-15T12:16:25.029Z,86.35
2018-01-15T12:17:34.988Z,86.07
2018-01-15T12:18:44.941Z,86.35
2018-01-15T12:19:54.651Z,86.74
2018-01-15T12:21:04.382Z,87.02
2018-01-15T12:22:14.358Z,86.35
2018-01-15T12:23:24.293Z,86.26
2018-01-15T12:24:33.993Z,86.26
2018-01-15T12:25:43.950Z,85.5
2018-01-15T12:26:53.917Z,86.55
2018-01-15T12:28:03.614Z,86.35
2018-01-15T12:29:13.564Z,86.74
2018-01-15T12:30:23.519Z,86.83
2018-01-15T12:31:33.509Z,86.45
2018-01-15T12:32:43.481Z,86.16
2018-01-15T12:33:53.185Z,86.26
2018-01-15T12:35:03.162Z,85.69
2018-01-15T12:36:12.619Z,85.78
2018-01-15T12:37:22.589Z,85.31
2018-01-15T12:38:32.290Z,85.22
2018-01-15T12:39:41.738Z,84.94
2018-01-15T12:40:51.428Z,85.69
2018-01-15T12:42:01.125Z,86.26
2018-01-15T12:43:11.089Z,85.69
2018-01-15T12:44:21.029Z,85.5
2018-01-15T12:45:30.981Z,84.55
2018-01-15T12:46:40.688Z,84.69
2018-01-15T12:47:50.664Z,84.41
2018-01-15T12:49:00.613Z,84.41
2018-01-15T12:50:10.602Z,84.46
2018-01-15T12:51:20.319Z,84.46
2018-01-15T12:52:30.278Z,84.41
2018-01-15T12:53:40.235Z,84.46
2018-01-15T12:54:49.946Z,85.13
2018-01-15T12:55:59.904Z,84.74
2018-01-15T12:57:09.868Z,85.22
2018-01-15T12:58:19.831Z,85.88
2018-01-15T12:59:29.803Z,86.07
2018-01-15T13:00:39.778Z,86.74
2018-01-15T13:01:49.797Z,87.73
2018-01-15T13:02:59.824Z,88.21
2018-01-15T13:04:09.542Z,88.87
2018-01-15T13:05:19.493Z,88.78
2018-01-15T13:06:29.495Z,88.78
2018-01-15T13:07:39.475Z,89.53
2018-01-15T13:08:49.435Z,89.25
2018-01-15T13:09:59.146Z,90.01
2018-01-15T13:11:08.847Z,90.1
2018-01-15T13:12:18.793Z,90.77
2018-01-15T13:13:28.494Z,90.77
2018-01-15T13:14:38.446Z,90.86
2018-01-15T13:15:47.885Z,90.58
2018-01-15T13:16:57.839Z,90.2
2018-01-15T13:18:07.790Z,89.44
2018-01-15T13:19:17.732Z,88.87
2018-01-15T13:20:27.697Z,87.83
2018-01-15T13:21:37.645Z,88.11
2018-01-15T13:22:47.356Z,87.16
2018-01-15T13:23:57.340Z,87.59
2018-01-15T13:25:07.321Z,87.59
2018-01-15T13:26:17.269Z,87.35
2018-01-15T13:27:26.989Z,87.12
2018-01-15T13:28:36.662Z,86.93
2018-01-15T13:29:46.351Z,86.69
2018-01-15T13:30:56.033Z,86.55
2018-01-15T13:32:05.720Z,86.26
2018-01-15T13:33:15.657Z,86.83
2018-01-15T13:34:25.342Z,86.64
2018-01-15T13:35:35.042Z,86.26
2018-01-15T13:36:45.056Z,86.98
2018-01-15T13:37:55.031Z,87.26
2018-01-15T13:39:05.002Z,87.35
2018-01-15T13:40:14.961Z,88.59
2018-01-15T13:41:24.665Z,88.3
2018-01-15T13:42:34.376Z,88.4
2018-01-15T13:43:44.376Z,89.06
2018-01-15T13:44:54.362Z,88.78
2018-01-15T13:46:04.324Z,88.87
2018-01-15T13:47:14.301Z,88.87
2018-01-15T13:48:24.302Z,88.78
2018-01-15T13:49:34.282Z,88.59
2018-01-15T13:50:44.301Z,89.53
2018-01-15T13:51:54.290Z,89.44
2018-01-15T13:53:04.001Z,89.34
2018-01-15T13:54:13.991Z,90.01
2018-01-15T13:55:23.705Z,89.91
2018-01-15T13:56:33.683Z,89.82
2018-01-15T13:57:43.627Z,89.34
2018-01-15T13:58:53.574Z,89.34
2018-01-15T14:00:03.535Z,88.68
2018-01-15T14:01:13.489Z,88.4
2018-01-15T14:02:23.462Z,88.21
2018-01-15T14:03:33.427Z,88.21
2018-01-15T14:04:43.383Z,88.68
2018-01-15T14:05:53.331Z,88.78
2018-01-15T14:07:02.792Z,88.68
2018-01-15T14:08:12.738Z,88.87
2018-01-15T14:09:22.703Z,89.34
2018-01-15T14:10:32.655Z,89.44
2018-01-15T14:11:42.585Z,89.91
2018-01-15T14:12:52.547Z,90.1
2018-01-15T14:14:02.250Z,90.48
2018-01-15T14:15:12.207Z,90.48
2018-01-15T14:16:21.896Z,90.53
2018-01-15T14:17:31.862Z,90.53
2018-01-15T14:18:41.814Z,90.53
2018-01-15T14:19:51.766Z,90.44
2018-01-15T14:21:01.710Z,90.91
2018-01-15T14:22:11.416Z,91
2018-01-15T14:23:21.424Z,91.29
2018-01-15T14:24:31.133Z,91
2018-01-15T14:25:41.078Z,90.91
2018-01-15T14:26:50.783Z,91
2018-01-15T14:28:00.485Z,91.19
2018-01-15T14:29:10.478Z,91.38
2018-01-15T14:30:20.248Z,91.19
2018-01-15T14:31:30.223Z,91.48
2018-01-15T14:32:39.927Z,91.48
2018-01-15T14:33:49.873Z,91.95
2018-01-15T14:34:59.595Z,92.52
2018-01-15T14:36:09.708Z,92.05
2018-01-15T14:37:19.433Z,91.67
2018-01-15T14:38:29.460Z,91.95
2018-01-15T14:39:39.417Z,92.05
2018-01-15T14:40:49.531Z,92.24
2018-01-15T14:41:58.970Z,92.05
2018-01-15T14:43:08.925Z,92.24
2018-01-15T14:44:18.623Z,92.33
2018-01-15T14:45:28.570Z,92.71
2018-01-15T14:46:38.275Z,92.71
2018-01-15T14:47:47.719Z,92.71
2018-01-15T14:48:57.689Z,93.27
2018-01-15T14:50:07.655Z,92.76
2018-01-15T14:51:17.600Z,93.61
2018-01-15T14:52:27.022Z,93.61
2018-01-15T14:53:36.976Z,93.89
2018-01-15T14:54:46.684Z,94.18
2018-01-15T14:55:56.634Z,94.27
2018-01-15T14:57:06.593Z,94.27
2018-01-15T14:58:16.541Z,94.18
2018-01-15T14:59:26.231Z,94.74
2018-01-15T15:00:36.180Z,94.65
2018-01-15T15:01:46.125Z,94.46
2018-01-15T15:02:56.083Z,94.65
2018-01-15T15:04:05.774Z,94.46
2018-01-15T15:05:15.716Z,94.37
2018-01-15T15:06:25.400Z,94.93
2018-01-15T15:07:34.862Z,94.84
2018-01-15T15:08:44.583Z,95.03